Time;durP1;ratioP1;P1;durP2;ratioP2;P2;SDS_P1;SDS_P2;PMS_P1;PMS_P2;Temp;Humidity;BMP_temperature;BMP_pressure;BME280_temperature;BME280_humidity;BME280_pressure;Samples;Min_cycle;Max_cycle;Signal;HPM_P1;HPM_P2
2022/08/26 00:01:00;;;;;;;26.70;8.20;;;;;;;18.88;70.29;98725.34;87051;1294;98994;-76
2022/08/26 00:04:02;;;;;;;21.60;8.30;;;;;;;18.82;70.35;98722.65;87301;1293;22601;-77
2022/08/26 00:06:47;;;;;;;;;;;;;;;;;;;;;
2022/08/26 00:09:46;;;;;;;;;;;;;;;;;;;;;
2022/08/26 00:12:18;;;;;;;16.20;7.60;;;;;;;18.65;70.70;98721.32;86792;1300;98970;-77
2022/08/26 00:14:51;;;;;;;15.80;7.80;;;;;;;18.57;70.77;98718.56;86814;1294;22616;-76
2022/08/26 00:17:54;;;;;;;25.20;8.90;;;;;;;18.51;70.83;98718.87;87476;1295;99215;-79
2022/08/26 00:20:52;;;;;;;26.40;8.90;;;;;;;18.41;70.91;98713.31;87046;1297;22627;-78
2022/08/26 00:24:08;;;;;;;28.80;9.20;;;;;;;18.37;71.02;98714.95;86305;1306;98093;-78
2022/08/26 00:26:36;;;;;;;;;;;;;;;;;;;;;
2022/08/26 00:29:31;;;;;;;;;;;;;;;;;;;;;
2022/08/26 00:31:35;;;;;;;25.30;8.90;;;;;;;18.14;71.29;98714.54;86097;1312;22620;-76
2022/08/26 00:34:37;;;;;;;31.90;9.20;;;;;;;18.14;71.39;98716.66;86080;1312;22692;-76
2022/08/26 00:37:36;;;;;;;;;;;;;;;;;;;;;
2022/08/26 00:40:13;;;;;;;;;;;;;;;;;;;;;
2022/08/26 00:42:55;;;;;;;34.60;8.70;;;;;;;18.02;71.53;98719.62;85694;1315;98847;-77
2022/08/26 00:45:47;;;;;;;16.30;9.20;;;;;;;17.96;71.66;98718.14;86196;1312;22614;-76
2022/08/26 00:48:27;;;;;;;;;;;;;;;;;;;;;
2022/08/26 00:51:29;;;;;;;29.00;9.30;;;;;;;17.81;71.99;98725.08;85824;1315;23314;-76
2022/08/26 00:54:30;;;;;;;23.40;10.20;;;;;;;17.80;72.11;98717.12;85516;1318;98931;-78
2022/08/26 00:57:47;;;;;;;38.50;9.10;;;;;;;17.80;72.14;98722.60;85798;1312;22775;-77
2022/08/26 01:00:40;;;;;;;28.80;9.70;;;;;;;17.76;72.15;98724.91;85786;1309;99651;-76
2022/08/26 01:03:14;;;;;;;32.40;8.90;;;;;;;17.76;72.24;98727.38;86332;1303;25357;-77
2022/08/26 01:05:56;;;;;;;17.60;8.60;;;;;;;17.76;72.37;98725.82;86303;1309;98003;-77
2022/08/26 01:08:57;;;;;;;35.30;9.70;;;;;;;17.72;72.31;98726.84;86436;1305;26052;-77
2022/08/26 01:12:04;;;;;;;26.50;10.10;;;;;;;17.75;72.47;98729.67;86294;1312;99446;-77
2022/08/26 01:14:58;;;;;;;15.80;8.90;;;;;;;17.73;72.47;98730.84;85971;1315;26535;-77
2022/08/26 01:17:57;;;;;;;20.10;8.60;;;;;;;17.74;72.52;98729.19;86073;1309;99061;-77
2022/08/26 01:21:03;;;;;;;28.10;8.70;;;;;;;17.73;72.55;98730.31;86331;1309;24667;-78
2022/08/26 01:23:36;;;;;;;;;;;;;;;;;;;;;
2022/08/26 01:26:53;;;;;;;22.70;8.60;;;;;;;17.69;72.69;98727.80;86286;1309;26556;-76
2022/08/26 01:29:54;;;;;;;39.10;8.70;;;;;;;17.68;72.66;98724.89;86357;1303;25988;-77
2022/08/26 01:32:36;;;;;;;13.00;7.60;;;;;;;17.66;72.74;98725.38;86463;1303;22566;-77
2022/08/26 01:34:59;;;;;;;22.30;8.30;;;;;;;17.62;72.76;98726.43;86297;1306;22631;-76
2022/08/26 01:38:05;;;;;;;21.80;7.90;;;;;;;17.59;72.79;98725.45;86666;1300;22640;-76
2022/08/26 01:40:58;;;;;;;25.00;8.40;;;;;;;17.56;72.97;98720.35;86900;1300;22608;-77
2022/08/26 01:43:49;;;;;;;;;;;;;;;;;;;;;
2022/08/26 01:46:23;;;;;;;17.70;8.60;;;;;;;17.50;73.19;98720.44;87394;1293;22693;-76
2022/08/26 01:48:58;;;;;;;;;;;;;;;;;;;;;
2022/08/26 01:52:01;;;;;;;20.10;8.60;;;;;;;17.43;73.03;98720.16;88250;1278;22634;-79
2022/08/26 01:54:40;;;;;;;19.30;8.00;;;;;;;17.39;73.10;98720.26;88664;1274;97736;-75
2022/08/26 01:57:15;;;;;;;19.00;7.90;;;;;;;17.37;73.12;98721.33;88686;1274;24738;-76
2022/08/26 02:00:19;;;;;;;23.60;7.80;;;;;;;17.36;73.16;98719.09;88415;1280;99011;-76
2022/08/26 02:06:28;;;;;;;;;;;;;;;;;;;;;
2022/08/26 02:09:18;;;;;;;;;;;;;;;;;;;;;
2022/08/26 02:11:51;;;;;;;20.30;7.70;;;;;;;17.34;72.97;98715.51;87877;1287;99084;-77
2022/08/26 02:14:41;;;;;;;24.00;7.80;;;;;;;17.35;73.06;98713.15;87933;1287;22589;-77
2022/08/26 02:17:32;;;;;;;;;;;;;;;;;;;;;
2022/08/26 02:20:36;;;;;;;16.30;7.60;;;;;;;17.30;73.08;98715.80;87998;1288;25544;-77
2022/08/26 02:23:38;;;;;;;17.70;7.80;;;;;;;17.28;73.18;98713.67;87935;1286;25280;-76
2022/08/26 02:26:41;;;;;;;;;;;;;;;;;;;;;
2022/08/26 02:29:48;;;;;;;22.40;8.70;;;;;;;17.22;73.36;98714.34;87317;1291;22627;-78
2022/08/26 02:32:33;;;;;;;24.80;7.70;;;;;;;17.17;73.39;98714.36;87359;1294;22577;-77
2022/08/26 02:35:14;;;;;;;18.70;7.70;;;;;;;17.15;73.47;98711.34;87312;1292;22599;-75
2022/08/26 02:38:02;;;;;;;18.80;8.20;;;;;;;17.11;73.32;98708.09;87306;1294;24234;-76
2022/08/26 02:40:39;;;;;;;14.50;7.90;;;;;;;17.09;73.53;98708.11;87339;1294;24216;-77
2022/08/26 02:43:44;;;;;;;16.80;7.70;;;;;;;17.07;73.47;98707.90;87465;1287;98864;-77
2022/08/26 02:49:32;;;;;;;16.40;8.50;;;;;;;17.03;73.50;98706.95;87184;1293;99359;-76
2022/08/26 02:52:15;;;;;;;;;;;;;;;;;;;;;
2022/08/26 02:54:52;;;;;;;15.90;7.30;;;;;;;17.00;73.44;98706.52;86726;1300;99099;-76
2022/08/26 02:57:34;;;;;;;12.90;7.60;;;;;;;16.99;73.53;98702.16;86825;1297;22572;-77
2022/08/26 03:00:09;;;;;;;25.10;8.20;;;;;;;16.97;73.51;98697.52;86654;1298;98794;-78
2022/08/26 03:03:11;;;;;;;;;;;;;;;;;;;;;
2022/08/26 03:06:03;;;;;;;24.20;8.40;;;;;;;16.94;73.64;98696.20;87368;1291;25537;-79
2022/08/26 03:09:05;;;;;;;18.70;8.00;;;;;;;16.93;73.63;98698.51;87616;1296;22724;-79
2022/08/26 03:12:08;;;;;;;18.20;7.20;;;;;;;16.92;73.83;98701.06;87465;1300;23731;-80
2022/08/26 03:15:08;;;;;;;22.20;7.50;;;;;;;16.89;73.67;98701.37;86922;1303;22763;-79
2022/08/26 03:17:33;;;;;;;16.60;7.40;;;;;;;16.86;73.77;98702.05;87031;1300;22636;-79
2022/08/26 03:20:41;;;;;;;28.10;8.50;;;;;;;16.82;73.84;98697.20;86885;1306;23084;-80
2022/08/26 03:23:33;;;;;;;;;;;;;;;;;;;;;
2022/08/26 03:26:07;;;;;;;19.30;7.30;;;;;;;16.78;73.97;98692.61;86603;1313;22652;-80
2022/08/26 03:28:35;;;;;;;16.60;7.40;;;;;;;16.73;73.95;98694.73;86183;1314;23368;-79
2022/08/26 03:31:26;;;;;;;28.00;8.40;;;;;;;16.69;73.91;98693.05;86241;1311;23926;-79
2022/08/26 03:34:21;;;;;;;23.10;8.10;;;;;;;16.66;73.96;98691.89;86894;1315;22609;-81
2022/08/26 03:36:27;;;;;;;24.30;8.20;;;;;;;16.60;73.87;98697.86;87094;1311;22787;-80
2022/08/26 03:39:10;;;;;;;;;;;;;;;;;;;;;
2022/08/26 03:41:26;;;;;;;25.10;8.30;;;;;;;16.45;74.04;98696.52;87046;1312;24285;-81
2022/08/26 03:43:51;;;;;;;20.70;7.90;;;;;;;16.41;74.03;98696.33;86975;1310;97762;-80
2022/08/26 03:46:38;;;;;;;30.30;8.90;;;;;;;16.39;74.13;98697.53;87336;1306;22621;-79
2022/08/26 03:49:42;;;;;;;;;;;;;;;;;;;;;
2022/08/26 03:52:38;;;;;;;22.30;7.70;;;;;;;16.32;74.25;98694.48;87835;1297;22694;-79
2022/08/26 03:54:59;;;;;;;19.70;8.00;;;;;;;16.28;74.13;98693.61;87825;1297;99047;-80
2022/08/26 03:57:00;;;;;;;33.40;9.30;;;;;;;16.29;74.42;98693.91;87961;1294;22686;-80
2022/08/26 03:59:48;;;;;;;43.00;8.60;;;;;;;16.29;74.41;98694.91;88332;1287;24203;-80
2022/08/26 04:02:38;;;;;;;33.40;9.00;;;;;;;16.30;74.37;98699.08;89620;1281;22695;-81
2022/08/26 04:05:48;;;;;;;;;;;;;;;;;;;;;
2022/08/26 04:08:51;;;;;;;22.50;7.50;;;;;;;16.31;74.51;98699.88;88869;1287;23615;-80
2022/08/26 04:11:45;;;;;;;;;;;;;;;;;;;;;
2022/08/26 04:14:39;;;;;;;23.20;7.60;;;;;;;16.33;74.58;98700.49;88935;1285;22593;-80
2022/08/26 04:17:30;;;;;;;;;;;;;;;;;;;;;
2022/08/26 04:20:12;;;;;;;31.90;8.30;;;;;;;16.36;74.71;98700.45;87900;1297;99088;-80
2022/08/26 04:23:24;;;;;;;47.10;9.20;;;;;;;16.36;74.41;98694.95;87859;1300;22735;-80
2022/08/26 04:26:07;;;;;;;27.00;8.40;;;;;;;16.35;74.45;98697.15;87629;1300;98840;-80
2022/08/26 04:28:50;;;;;;;26.30;8.70;;;;;;;16.32;74.62;98693.65;87768;1297;22635;-81
2022/08/26 04:31:27;;;;;;;21.80;7.80;;;;;;;16.34;74.52;98700.04;87666;1297;99097;-80
2022/08/26 04:34:10;;;;;;;41.00;7.90;;;;;;;16.32;74.52;98697.01;87841;1300;24047;-81
2022/08/26 04:36:20;;;;;;;30.60;7.60;;;;;;;16.31;74.74;98700.95;87763;1298;98811;-80
2022/08/26 04:38:35;;;;;;;34.70;9.20;;;;;;;16.29;74.66;98699.16;87614;1300;22565;-80
2022/08/26 04:41:12;;;;;;;32.60;7.80;;;;;;;16.28;74.72;98698.23;87710;1300;22579;-80
2022/08/26 04:43:27;;;;;;;37.30;8.80;;;;;;;16.28;74.70;98692.70;87822;1297;97735;-80
2022/08/26 04:46:08;;;;;;;;;;;;;;;;;;;;;
2022/08/26 04:48:51;;;;;;;44.70;9.80;;;;;;;16.26;74.81;98684.86;87975;1293;97708;-82
2022/08/26 04:51:26;;;;;;;43.40;8.40;;;;;;;16.35;74.82;98690.54;88280;1291;22665;-80
2022/08/26 04:54:15;;;;;;;36.30;9.20;;;;;;;16.39;74.77;98691.14;88230;1287;99164;-80
2022/08/26 04:56:49;;;;;;;51.70;8.90;;;;;;;16.45;74.69;98688.20;88981;1278;24763;-80
2022/08/26 04:58:54;;;;;;;74.80;9.70;;;;;;;16.52;74.79;98689.60;89438;1278;23446;-80
2022/08/26 05:01:30;;;;;;;47.60;8.10;;;;;;;16.59;74.53;98686.83;89292;1279;98985;-80
2022/08/26 05:04:31;;;;;;;35.20;7.30;;;;;;;16.66;74.63;98684.61;89435;1280;22592;-82
2022/08/26 05:07:03;;;;;;;37.10;8.90;;;;;;;16.75;74.75;98686.09;88973;1279;98969;-79
2022/08/26 05:09:54;;;;;;;34.10;7.80;;;;;;;16.82;74.70;98690.80;89329;1281;22604;-82
2022/08/26 05:11:59;;;;;;;36.60;8.50;;;;;;;16.92;74.87;98695.77;89493;1277;99166;-78
2022/08/26 05:14:01;;;;;;;38.60;7.50;;;;;;;16.99;74.79;98696.11;88483;1278;22673;-78
2022/08/26 05:16:18;;;;;;;23.20;7.10;;;;;;;17.06;74.85;98692.75;88195;1281;22545;-78
2022/08/26 05:18:24;;;;;;;23.50;7.50;;;;;;;17.14;74.55;98694.58;88329;1277;98765;-78
2022/08/26 05:20:47;;;;;;;35.80;7.70;;;;;;;17.24;74.62;98695.23;88348;1278;22571;-78
2022/08/26 05:22:54;;;;;;;33.80;7.40;;;;;;;17.32;74.40;98694.52;88498;1281;22579;-78
2022/08/26 05:25:07;;;;;;;58.90;7.20;;;;;;;17.40;74.29;98692.45;88465;1279;98867;-78
2022/08/26 05:27:09;;;;;;;32.10;6.70;;;;;;;17.49;74.32;98696.35;88588;1278;22699;-76
2022/08/26 05:29:11;;;;;;;37.90;7.60;;;;;;;17.60;74.14;98694.45;88380;1280;22645;-77
2022/08/26 05:31:17;;;;;;;24.00;6.80;;;;;;;17.69;74.00;98694.36;88217;1282;99151;-78
2022/08/26 05:33:28;;;;;;;34.50;6.50;;;;;;;17.80;73.64;98693.33;88587;1278;24015;-78
2022/08/26 05:35:32;;;;;;;24.00;6.70;;;;;;;17.92;73.32;98695.41;88546;1278;22581;-78
2022/08/26 05:37:37;;;;;;;23.10;7.10;;;;;;;18.02;73.20;98700.77;88637;1276;98625;-78
2022/08/26 05:39:39;;;;;;;23.80;6.70;;;;;;;18.10;73.20;98696.55;88618;1276;22601;-76
2022/08/26 05:41:50;;;;;;;29.80;7.30;;;;;;;18.18;73.12;98691.77;88528;1278;98875;-77
2022/08/26 05:43:56;;;;;;;22.60;7.40;;;;;;;18.26;73.05;98694.55;88494;1278;22588;-78
2022/08/26 05:46:05;;;;;;;33.80;7.20;;;;;;;18.33;72.91;98687.87;88843;1278;22641;-77
2022/08/26 05:48:07;;;;;;;46.20;8.20;;;;;;;18.41;72.76;98687.53;88559;1278;98869;-78
2022/08/26 05:50:42;;;;;;;29.90;6.70;;;;;;;18.50;72.59;98690.55;88554;1278;23034;-78
2022/08/26 05:52:51;;;;;;;45.00;8.20;;;;;;;18.60;72.52;98690.60;88558;1278;22613;-77
2022/08/26 05:55:27;;;;;;;39.20;7.80;;;;;;;18.68;72.21;98692.71;88769;1277;97762;-78
2022/08/26 05:57:43;;;;;;;34.20;6.90;;;;;;;18.78;71.92;98691.31;88977;1276;25867;-78
2022/08/26 06:00:01;;;;;;;38.70;7.00;;;;;;;18.85;71.83;98689.45;88570;1276;99619;-77
2022/08/26 06:02:04;;;;;;;52.10;7.20;;;;;;;18.93;71.81;98688.98;88784;1277;22617;-76
2022/08/26 06:04:12;;;;;;;45.80;7.30;;;;;;;18.99;71.69;98689.86;88694;1278;24340;-77
2022/08/26 06:06:47;;;;;;;22.10;6.80;;;;;;;19.04;71.70;98688.89;88611;1277;98899;-77
2022/08/26 06:09:39;;;;;;;29.80;7.00;;;;;;;19.11;71.48;98691.36;88730;1276;22610;-79
2022/08/26 06:11:54;;;;;;;25.40;7.60;;;;;;;19.19;71.73;98687.97;88574;1276;98909;-78
2022/08/26 06:14:07;;;;;;;20.80;6.30;;;;;;;19.24;71.10;98687.86;88708;1276;22558;-77
2022/08/26 06:16:23;;;;;;;;;;;;;;;;;;;;;
2022/08/26 06:18:49;;;;;;;48.60;6.90;;;;;;;19.35;71.18;98691.15;88306;1277;98916;-78
2022/08/26 06:21:40;;;;;;;30.10;7.00;;;;;;;19.44;71.34;98695.52;88547;1277;26019;-76
2022/08/26 06:27:30;;;;;;;26.50;7.90;;;;;;;19.55;70.53;98693.28;88490;1277;22646;-78
2022/08/26 06:29:47;;;;;;;36.60;8.30;;;;;;;19.60;70.67;98690.25;88546;1274;23826;-79
2022/08/26 06:35:05;;;;;;;52.30;7.70;;;;;;;19.71;70.51;98688.09;88520;1276;24240;-77
2022/08/26 06:37:07;;;;;;;38.40;7.30;;;;;;;19.78;70.34;98690.94;88428;1277;99754;-77
2022/08/26 06:39:42;;;;;;;26.90;7.00;;;;;;;19.83;70.27;98691.67;88498;1274;25386;-78
2022/08/26 06:41:44;;;;;;;26.70;7.00;;;;;;;19.87;70.06;98690.80;88604;1274;99100;-76
2022/08/26 06:43:55;;;;;;;25.60;6.80;;;;;;;19.93;70.24;98692.61;88546;1276;22509;-77
2022/08/26 06:46:34;;;;;;;;;;;;;;;;;;;;;
2022/08/26 06:49:00;;;;;;;33.80;7.30;;;;;;;20.05;70.00;98695.09;88450;1275;97681;-78
2022/08/26 06:51:44;;;;;;;33.60;7.20;;;;;;;20.13;69.98;98690.60;88578;1275;22632;-77
2022/08/26 06:54:08;;;;;;;35.10;7.70;;;;;;;20.21;69.71;98686.65;88534;1275;98944;-78
2022/08/26 06:56:38;;;;;;;29.10;7.70;;;;;;;20.25;69.84;98680.36;88461;1276;22959;-78
2022/08/26 06:58:44;;;;;;;46.50;7.70;;;;;;;20.34;69.83;98688.09;88563;1277;22725;-78
2022/08/26 07:00:57;;;;;;;33.50;7.30;;;;;;;20.39;69.49;98690.14;88619;1274;99748;-78
2022/08/26 07:03:11;;;;;;;45.00;8.00;;;;;;;20.43;69.39;98689.77;88434;1276;22612;-77
2022/08/26 07:05:24;;;;;;;31.20;8.00;;;;;;;20.50;69.53;98685.15;88490;1276;24290;-78
2022/08/26 07:07:32;;;;;;;29.70;7.50;;;;;;;20.55;69.00;98687.73;88425;1277;98855;-77
2022/08/26 07:10:02;;;;;;;;;;;;;;;;;;;;;
2022/08/26 07:12:14;;;;;;;33.90;7.20;;;;;;;20.62;69.25;98690.91;88356;1275;100377;-78
2022/08/26 07:14:20;;;;;;;33.50;8.40;;;;;;;20.71;69.51;98688.93;88546;1275;22798;-79
2022/08/26 07:16:42;;;;;;;37.10;8.10;;;;;;;20.79;68.98;98684.16;88440;1276;22729;-77
2022/08/26 07:18:45;;;;;;;24.00;6.70;;;;;;;20.85;69.18;98685.81;88456;1275;98995;-77
2022/08/26 07:20:47;;;;;;;17.50;7.40;;;;;;;20.91;69.21;98689.14;88520;1277;24470;-78
2022/08/26 07:22:49;;;;;;;28.60;7.30;;;;;;;20.99;69.19;98685.27;88450;1279;22566;-77
2022/08/26 07:25:35;;;;;;;26.50;7.00;;;;;;;21.11;69.15;98685.20;88627;1276;98793;-78
2022/08/26 07:27:42;;;;;;;24.10;7.40;;;;;;;21.24;68.99;98686.00;88538;1276;22511;-77
2022/08/26 07:29:46;;;;;;;30.90;8.10;;;;;;;21.34;68.63;98685.45;88305;1278;99315;-78
2022/08/26 07:31:48;;;;;;;33.00;7.60;;;;;;;21.40;68.45;98683.56;88551;1276;22582;-79
2022/08/26 07:33:52;;;;;;;37.90;7.50;;;;;;;21.48;68.38;98683.39;88431;1279;23028;-79
2022/08/26 07:36:28;;;;;;;22.80;7.40;;;;;;;21.53;68.05;98681.30;88435;1277;98985;-79
2022/08/26 07:38:51;;;;;;;36.20;7.80;;;;;;;21.59;67.59;98676.95;88514;1278;22565;-80
2022/08/26 07:41:22;;;;;;;23.60;7.00;;;;;;;21.64;67.62;98679.69;88584;1276;22709;-79
2022/08/26 07:43:58;;;;;;;23.30;8.40;;;;;;;21.69;67.72;98674.88;88462;1276;98822;-77
2022/08/26 07:46:24;;;;;;;20.50;7.40;;;;;;;21.82;67.59;98674.53;88484;1276;22906;-77
2022/08/26 07:48:26;;;;;;;24.90;7.00;;;;;;;21.92;67.50;98676.23;88321;1277;99266;-77
2022/08/26 07:50:27;;;;;;;26.20;7.20;;;;;;;21.97;67.25;98678.40;88470;1276;22744;-77
2022/08/26 07:52:29;;;;;;;35.20;7.60;;;;;;;22.00;67.08;98672.93;88495;1278;25390;-78
2022/08/26 07:54:31;;;;;;;26.00;7.40;;;;;;;22.04;67.35;98673.89;88731;1279;97920;-79
2022/08/26 07:56:34;;;;;;;24.90;6.40;;;;;;;22.14;67.52;98671.27;88732;1276;25508;-78
2022/08/26 07:58:37;;;;;;;19.60;7.00;;;;;;;22.22;67.06;98670.14;88796;1279;23366;-76
2022/08/26 08:00:39;;;;;;;34.90;6.90;;;;;;;22.31;67.02;98667.48;88638;1276;99113;-77
2022/08/26 08:02:53;;;;;;;21.80;7.00;;;;;;;22.41;67.03;98665.77;88576;1278;24234;-78
2022/08/26 08:05:01;;;;;;;16.20;6.10;;;;;;;22.50;66.92;98669.12;88894;1276;22562;-78
2022/08/26 08:07:10;;;;;;;30.40;7.00;;;;;;;22.58;66.43;98670.24;88869;1278;98802;-77
2022/08/26 08:09:14;;;;;;;30.60;7.10;;;;;;;22.64;66.40;98669.81;89056;1277;22564;-78
2022/08/26 08:11:27;;;;;;;29.80;7.70;;;;;;;22.69;66.32;98665.44;88933;1277;24278;-77
2022/08/26 08:13:29;;;;;;;20.20;6.50;;;;;;;22.75;66.22;98669.02;88829;1276;99319;-78
2022/08/26 08:15:33;;;;;;;35.30;7.50;;;;;;;22.82;66.23;98667.42;88953;1276;25533;-78
2022/08/26 08:17:41;;;;;;;19.60;6.30;;;;;;;22.87;65.85;98671.52;88722;1279;23213;-77
2022/08/26 08:20:08;;;;;;;25.30;6.50;;;;;;;22.94;65.75;98667.41;88741;1276;22616;-77
2022/08/26 08:22:26;;;;;;;20.00;6.10;;;;;;;23.04;66.01;98665.37;88793;1276;22788;-78
2022/08/26 08:24:31;;;;;;;33.80;7.40;;;;;;;23.18;66.03;98662.40;88568;1277;98850;-78
2022/08/26 08:26:35;;;;;;;28.30;6.60;;;;;;;23.32;65.91;98660.79;88853;1276;22856;-79
2022/08/26 08:28:39;;;;;;;17.90;6.90;;;;;;;23.47;65.85;98662.41;89318;1276;22635;-77
2022/08/26 08:30:41;;;;;;;34.30;6.80;;;;;;;23.56;65.52;98661.13;88743;1276;98738;-79
2022/08/26 08:33:09;;;;;;;19.50;6.40;;;;;;;23.66;65.55;98661.07;88849;1276;22731;-78
2022/08/26 08:35:14;;;;;;;20.10;6.70;;;;;;;23.83;65.63;98655.91;88831;1274;22815;-77
2022/08/26 08:37:55;;;;;;;22.10;6.30;;;;;;;23.94;64.78;98657.77;88734;1277;97807;-79
2022/08/26 08:40:16;;;;;;;28.50;6.90;;;;;;;23.99;64.48;98655.81;89073;1274;22699;-78
2022/08/26 08:42:41;;;;;;;;;;;;;;;24.10;64.06;98653.19;88842;1276;98633;-76
2022/08/26 08:44:47;;;;;;;38.10;6.30;;;;;;;24.16;63.92;98651.09;88922;1280;22571;-77
2022/08/26 08:46:58;;;;;;;30.10;6.30;;;;;;;24.24;64.33;98646.91;88741;1278;22528;-78
2022/08/26 08:49:02;;;;;;;26.20;6.10;;;;;;;24.34;63.58;98647.68;88745;1279;98871;-77
2022/08/26 08:51:17;;;;;;;33.50;6.20;;;;;;;24.40;63.58;98645.91;88560;1282;22719;-79
2022/08/26 08:53:32;;;;;;;35.00;5.70;;;;;;;24.44;62.37;98650.45;88889;1280;22688;-77
2022/08/26 08:56:20;;;;;;;27.00;6.30;;;;;;;24.51;62.85;98649.19;88747;1280;98784;-78
2022/08/26 08:58:43;;;;;;;29.30;6.60;;;;;;;24.62;62.68;98646.09;88747;1279;22560;-79
2022/08/26 09:01:00;;;;;;;27.20;5.90;;;;;;;24.75;62.79;98642.94;88831;1280;98136;-77
2022/08/26 09:03:17;;;;;;;26.90;6.00;;;;;;;24.88;62.54;98641.98;88997;1280;22572;-76
2022/08/26 09:05:30;;;;;;;49.30;5.80;;;;;;;24.97;62.34;98642.05;88670;1279;22520;-78
2022/08/26 09:07:58;;;;;;;23.60;5.80;;;;;;;25.05;62.47;98639.75;88703;1279;98860;-78
2022/08/26 09:10:16;;;;;;;23.40;6.10;;;;;;;25.09;61.72;98635.98;88681;1280;22599;-77
2022/08/26 09:12:36;;;;;;;18.50;5.90;;;;;;;25.17;62.20;98639.63;88809;1279;98983;-76
2022/08/26 09:15:17;;;;;;;20.10;6.00;;;;;;;25.27;62.25;98632.50;88725;1279;22627;-81
2022/08/26 09:17:41;;;;;;;28.40;5.90;;;;;;;25.43;62.30;98634.20;88622;1279;23019;-77
2022/08/26 09:20:02;;;;;;;27.20;6.20;;;;;;;25.56;62.44;98627.18;88797;1280;22582;-77
2022/08/26 09:22:47;;;;;;;14.60;5.20;;;;;;;25.70;62.21;98630.03;88507;1279;22794;-79
2022/08/26 09:24:49;;;;;;;42.00;6.10;;;;;;;25.76;61.72;98629.06;89092;1276;98853;-77
2022/08/26 09:27:05;;;;;;;32.50;6.30;;;;;;;25.79;61.57;98627.05;89160;1276;22586;-80
2022/08/26 09:29:18;;;;;;;35.10;6.90;;;;;;;25.86;61.44;98627.54;88859;1276;25510;-76
2022/08/26 09:31:29;;;;;;;22.10;6.10;;;;;;;25.94;60.79;98625.93;88813;1274;98733;-77
2022/08/26 09:34:12;;;;;;;30.00;5.70;;;;;;;25.90;60.46;98622.89;84783;1276;5531146;-77
2022/08/26 09:36:22;;;;;;;47.10;6.60;;;;;;;25.96;61.03;98621.65;88933;1276;99182;-77
2022/08/26 09:38:27;;;;;;;33.50;6.00;;;;;;;26.09;60.02;98614.81;88860;1277;22699;-77
2022/08/26 09:40:53;;;;;;;24.10;5.70;;;;;;;26.13;60.33;98616.06;88936;1276;22584;-79
2022/08/26 09:43:14;;;;;;;24.00;5.80;;;;;;;26.27;60.41;98615.73;88717;1276;98777;-77
2022/08/26 09:45:40;;;;;;;25.80;6.00;;;;;;;26.35;59.66;98615.45;88492;1277;22582;-77
2022/08/26 09:48:09;;;;;;;34.40;5.70;;;;;;;26.33;59.21;98611.38;88543;1277;23509;-77
2022/08/26 09:50:49;;;;;;;26.20;5.30;;;;;;;26.39;59.57;98611.21;88241;1280;23555;-78
2022/08/26 09:53:11;;;;;;;40.50;4.90;;;;;;;26.51;59.46;98613.89;87747;1286;23029;-78
2022/08/26 09:55:22;;;;;;;22.30;5.60;;;;;;;26.62;59.01;98606.84;87511;1286;98924;-78
2022/08/26 09:57:44;;;;;;;20.20;5.40;;;;;;;26.66;58.72;98605.55;87670;1285;24632;-76
2022/08/26 10:01:13;;;;;;;28.60;6.00;;;;;;;26.74;58.22;98602.04;87592;1287;98949;-77
2022/08/26 10:03:41;;;;;;;38.10;6.50;;;;;;;26.85;58.32;98598.26;87796;1285;25858;-77
2022/08/26 10:06:16;;;;;;;19.20;4.90;;;;;;;26.99;58.98;98598.95;87685;1285;22588;-78
2022/08/26 10:08:32;;;;;;;27.80;5.70;;;;;;;27.28;58.64;98602.59;87765;1285;22591;-77
2022/08/26 10:10:43;;;;;;;42.60;6.00;;;;;;;27.34;57.33;98601.52;87878;1285;22636;-77
2022/08/26 10:13:12;;;;;;;23.90;5.60;;;;;;;27.31;57.25;98604.33;87433;1286;99721;-76
2022/08/26 10:15:32;;;;;;;39.30;6.00;;;;;;;27.35;57.41;98599.17;87734;1285;26505;-77
2022/08/26 10:18:08;;;;;;;33.70;5.70;;;;;;;27.40;57.44;98599.34;87634;1287;22602;-77
2022/08/26 10:20:48;;;;;;;27.00;5.50;;;;;;;27.56;57.55;98597.46;87789;1285;25435;-77
2022/08/26 10:23:15;;;;;;;19.20;5.50;;;;;;;27.64;56.76;98589.66;87687;1287;23413;-78
2022/08/26 10:25:30;;;;;;;39.10;6.50;;;;;;;27.64;56.82;98592.19;88217;1279;98918;-77
2022/08/26 10:28:07;;;;;;;;;;;;;;;;;;;;;
2022/08/26 10:30:15;;;;;;;42.90;6.10;;;;;;;27.73;56.66;98588.15;88533;1274;98916;-77
2022/08/26 10:32:46;;;;;;;27.00;5.80;;;;;;;27.69;56.23;98588.38;88494;1276;22604;-77
2022/08/26 10:34:47;;;;;;;38.70;5.40;;;;;;;27.73;56.54;98588.02;88454;1276;22709;-76
2022/08/26 10:37:23;;;;;;;35.90;6.30;;;;;;;27.73;55.93;98587.03;88268;1279;99115;-77
2022/08/26 10:39:51;;;;;;;29.90;5.20;;;;;;;27.68;56.30;98584.73;88122;1282;23046;-77
2022/08/26 10:42:06;;;;;;;46.90;5.60;;;;;;;27.79;55.88;98580.51;88110;1280;98998;-77
2022/08/26 10:44:17;;;;;;;27.60;6.00;;;;;;;27.82;56.19;98576.86;88093;1282;22579;-78
2022/08/26 10:46:23;;;;;;;38.60;6.60;;;;;;;27.89;56.43;98577.41;88394;1279;22579;-77
2022/08/26 10:49:18;;;;;;;38.00;6.00;;;;;;;28.03;56.33;98567.39;88198;1281;97865;-78
2022/08/26 10:51:42;;;;;;;50.70;6.40;;;;;;;28.14;55.26;98570.96;87697;1287;22756;-76
2022/08/26 10:54:43;;;;;;;34.30;5.20;;;;;;;28.11;54.55;98566.42;87683;1287;23557;-77
2022/08/26 10:57:55;;;;;;;;;;;;;;;;;;;;;
2022/08/26 11:03:27;;;;;;;52.10;6.10;;;;;;;28.13;54.49;98561.04;87261;1294;22577;-80
2022/08/26 11:05:34;;;;;;;46.20;6.30;;;;;;;28.25;54.53;98566.58;87282;1294;22651;-77
2022/08/26 11:08:19;;;;;;;52.70;6.70;;;;;;;28.28;54.10;98558.64;87302;1294;99295;-79
2022/08/26 11:10:21;;;;;;;60.40;5.50;;;;;;;28.28;52.99;98562.56;87106;1299;23379;-77
2022/08/26 11:12:58;;;;;;;38.50;6.00;;;;;;;28.32;53.97;98563.46;86800;1297;97809;-77
2022/08/26 11:15:23;;;;;;;24.20;4.40;;;;;;;28.49;53.78;98559.10;86447;1306;22595;-77
2022/08/26 11:17:55;;;;;;;52.00;6.20;;;;;;;28.57;53.09;98562.39;86316;1308;22778;-77
2022/08/26 11:20:57;;;;;;;23.10;4.70;;;;;;;28.56;52.50;98559.13;86419;1308;22643;-77
2022/08/26 11:23:37;;;;;;;30.80;4.90;;;;;;;28.64;53.11;98555.64;86130;1312;24425;-77
2022/08/26 11:26:28;;;;;;;22.50;4.00;;;;;;;28.75;52.66;98554.04;86079;1311;98974;-79
2022/08/26 11:28:46;;;;;;;33.90;4.90;;;;;;;28.83;52.71;98551.49;86466;1311;22603;-77
2022/08/26 11:31:43;;;;;;;13.70;4.00;;;;;;;28.91;52.19;98548.05;86784;1305;99073;-79
2022/08/26 11:34:39;;;;;;;27.90;4.00;;;;;;;28.99;51.59;98545.54;86610;1312;22933;-77
2022/08/26 11:36:53;;;;;;;35.20;4.50;;;;;;;29.03;51.26;98545.58;86200;1306;99048;-76
2022/08/26 11:39:50;;;;;;;55.70;5.50;;;;;;;29.09;51.48;98542.55;86598;1306;24023;-79
2022/08/26 11:42:25;;;;;;;13.70;3.20;;;;;;;29.15;51.27;98541.45;86756;1306;22783;-79
2022/08/26 11:45:00;;;;;;;7.80;3.50;;;;;;;29.11;50.19;98535.34;87013;1306;22615;-81
2022/08/26 11:47:11;;;;;;;12.50;3.50;;;;;;;29.01;49.88;98535.48;86711;1304;22846;-78
2022/08/26 11:49:13;;;;;;;27.70;7.40;;;;;;;28.98;50.32;98531.45;86764;1300;98921;-76
2022/08/26 11:51:51;;;;;;;;;;;;;;;;;;;;;
2022/08/26 11:54:29;;;;;;;24.70;4.50;;;;;;;28.94;49.55;98529.81;87371;1296;22613;-78
2022/08/26 11:56:37;;;;;;;19.60;4.00;;;;;;;28.87;49.62;98525.33;88077;1285;22827;-77
2022/08/26 11:58:46;;;;;;;31.60;6.80;;;;;;;28.85;49.99;98526.11;88014;1285;22588;-78
2022/08/26 12:01:06;;;;;;;24.70;4.50;;;;;;;28.84;49.73;98528.02;88499;1282;99761;-79
2022/08/26 12:03:13;;;;;;;15.70;4.20;;;;;;;28.81;48.94;98522.77;88437;1281;22588;-78
2022/08/26 12:05:27;;;;;;;15.50;3.90;;;;;;;28.77;49.58;98521.70;88588;1281;26635;-77
2022/08/26 12:08:21;;;;;;;15.50;3.20;;;;;;;28.73;48.64;98516.88;88232;1285;99085;-79
2022/08/26 12:10:47;;;;;;;8.10;2.70;;;;;;;28.68;47.96;98517.30;88881;1282;22599;-78
2022/08/26 12:13:44;;;;;;;;;;;;;;;;;;;;;
2022/08/26 12:16:47;;;;;;;11.70;3.40;;;;;;;28.57;47.07;98506.29;88624;1281;24231;-80
2022/08/26 12:19:18;;;;;;;10.30;3.00;;;;;;;28.56;47.34;98505.15;88452;1279;99011;-78
2022/08/26 12:21:24;;;;;;;26.20;4.70;;;;;;;28.57;47.47;98504.02;88187;1280;24214;-78
2022/08/26 12:23:57;;;;;;;24.50;3.60;;;;;;;28.62;48.24;98501.34;87873;1282;22574;-76
2022/08/26 12:26:35;;;;;;;;;;;;;;;;;;;;;
2022/08/26 12:29:33;;;;;;;16.10;3.30;;;;;;;28.60;46.88;98496.33;88143;1282;24233;-77
2022/08/26 12:32:37;;;;;;;;;;;;;;;;;;;;;
2022/08/26 12:35:05;;;;;;;10.40;2.70;;;;;;;28.65;46.35;98498.17;88210;1285;24355;-76
2022/08/26 12:37:41;;;;;;;14.60;3.00;;;;;;;28.66;46.73;98491.83;87759;1283;99483;-79